createdAt,value
2023-09-21T00:00:17.330Z,5.20
2023-09-21T00:02:52.035Z,7.55
2023-09-21T00:05:25.714Z,4.93
2023-09-21T00:07:52.212Z,7.40
2023-09-21T00:10:19.820Z,6.22
2023-09-21T00:12:46.880Z,7.15
2023-09-21T00:15:20.457Z,5.38
2023-09-21T00:17:47.762Z,6.03
2023-09-21T00:22:52.365Z,6.78
2023-09-21T00:25:18.904Z,6.07
2023-09-21T00:27:45.739Z,6.50
2023-09-21T00:30:13.117Z,5.70
2023-09-21T00:35:11.162Z,7.28
2023-09-21T00:37:39.112Z,6.35
2023-09-21T00:40:26.024Z,5.68
2023-09-21T00:42:57.000Z,5.80
2023-09-21T00:45:23.555Z,5.93
2023-09-21T00:47:51.339Z,4.85
2023-09-21T00:50:23.512Z,5.43
2023-09-21T00:52:54.341Z,5.70
2023-09-21T00:55:40.558Z,6.70
2023-09-21T01:00:34.135Z,4.65
2023-09-21T01:03:09.148Z,4.38
2023-09-21T01:05:37.634Z,8.30
2023-09-21T01:08:06.352Z,7.20
2023-09-21T01:10:34.412Z,5.13
2023-09-21T01:13:01.279Z,5.13
2023-09-21T01:15:28.033Z,6.40
2023-09-21T01:17:54.652Z,4.93
2023-09-21T01:23:13.752Z,5.32
2023-09-21T01:25:41.734Z,7.55
2023-09-21T01:28:12.352Z,5.90
2023-09-21T01:30:41.703Z,6.22
2023-09-21T01:33:10.386Z,4.28
2023-09-21T01:35:37.691Z,5.70
2023-09-21T01:38:07.021Z,6.90
2023-09-21T01:40:35.529Z,5.15
2023-09-21T01:43:07.211Z,6.80
2023-09-21T01:45:34.574Z,7.22
2023-09-21T01:50:29.861Z,5.32
2023-09-21T01:52:57.250Z,6.80
2023-09-21T01:57:50.137Z,6.47
2023-09-21T02:00:27.997Z,7.05
2023-09-21T02:02:57.487Z,6.53
2023-09-21T02:05:25.169Z,6.03
2023-09-21T02:07:53.255Z,7.22
2023-09-21T02:10:19.944Z,6.05
2023-09-21T02:12:59.459Z,5.72
2023-09-21T02:15:26.259Z,11.13
2023-09-21T02:17:55.410Z,6.03
2023-09-21T02:20:22.587Z,8.13
2023-09-21T02:22:49.959Z,5.63
2023-09-21T02:25:17.271Z,6.13
2023-09-21T02:27:48.123Z,7.10
2023-09-21T02:30:18.765Z,5.03
2023-09-21T02:32:46.747Z,6.35
2023-09-21T02:35:17.560Z,4.85
2023-09-21T02:37:45.684Z,6.95
2023-09-21T02:40:17.518Z,5.97
2023-09-21T02:42:44.613Z,6.47
2023-09-21T02:45:12.095Z,4.75
2023-09-21T02:47:39.934Z,5.97
2023-09-21T02:50:15.674Z,7.00
2023-09-21T02:52:46.829Z,7.32
2023-09-21T02:55:21.945Z,12.48
2023-09-21T02:57:55.860Z,6.80
2023-09-21T03:00:29.770Z,6.57
2023-09-21T03:02:58.132Z,6.88
2023-09-21T03:05:26.383Z,5.60
2023-09-21T03:07:54.391Z,5.55
2023-09-21T03:10:21.662Z,6.80
2023-09-21T03:12:49.717Z,6.00
2023-09-21T03:15:21.294Z,5.22
2023-09-21T03:17:48.907Z,6.57
2023-09-21T03:20:36.702Z,4.88
2023-09-21T03:23:06.615Z,3.70
2023-09-21T03:25:34.325Z,5.68
2023-09-21T03:28:11.514Z,4.30
2023-09-21T03:30:39.971Z,6.75
2023-09-21T03:33:07.064Z,6.93
2023-09-21T03:35:33.820Z,4.90
2023-09-21T03:38:00.724Z,5.20
2023-09-21T03:40:28.394Z,6.35
2023-09-21T06:33:27.388Z,7.05
2023-09-21T06:35:54.117Z,4.78
2023-09-21T06:38:21.591Z,6.00
2023-09-21T06:40:48.249Z,5.28
2023-09-21T06:43:14.780Z,7.15
2023-09-21T06:45:42.239Z,6.80
2023-09-21T06:48:12.381Z,5.15
2023-09-21T06:50:41.427Z,4.47
2023-09-21T06:53:08.616Z,6.18
2023-09-21T06:55:35.835Z,5.68
2023-09-21T06:58:02.315Z,4.85
2023-09-21T07:00:28.852Z,5.10
2023-09-21T07:02:55.662Z,7.47
2023-09-21T07:05:22.415Z,6.53
2023-09-21T07:07:50.174Z,5.72
2023-09-21T07:10:17.547Z,5.50
2023-09-21T07:15:10.754Z,6.65
2023-09-21T07:17:37.911Z,8.15
2023-09-21T07:20:10.423Z,5.53
2023-09-21T07:22:37.326Z,6.25
2023-09-21T07:25:04.434Z,6.88
2023-09-21T07:27:31.145Z,4.88
2023-09-21T07:29:58.306Z,6.40
2023-09-21T07:32:30.097Z,6.05
2023-09-21T07:34:56.665Z,3.92
2023-09-21T07:37:23.231Z,3.50
2023-09-21T07:39:50.349Z,5.88
2023-09-21T07:42:16.860Z,4.82
2023-09-21T07:44:46.252Z,2.95
2023-09-21T07:47:13.830Z,4.72
2023-09-21T07:49:40.641Z,3.63
2023-09-21T07:52:08.423Z,3.75
2023-09-21T07:54:35.010Z,3.35
2023-09-21T07:57:01.734Z,2.78
2023-09-21T07:59:28.390Z,4.13
2023-09-21T08:01:57.381Z,2.33
2023-09-21T08:04:24.415Z,2.92
2023-09-21T08:06:51.178Z,4.25
2023-09-21T10:22:25.155Z,6.68
2023-09-21T10:24:54.479Z,2.67
2023-09-21T10:27:22.657Z,2.60
2023-09-21T10:29:52.418Z,4.65
2023-09-21T10:32:22.578Z,3.70
2023-09-21T10:34:50.147Z,2.60
2023-09-21T10:37:18.852Z,3.08
2023-09-21T10:39:45.406Z,4.00
2023-09-21T10:42:13.845Z,3.63
2023-09-21T10:45:04.504Z,4.93
2023-09-21T10:47:36.743Z,4.03
2023-09-21T10:50:07.755Z,2.40
2023-09-21T10:52:34.451Z,4.95
2023-09-21T10:55:01.067Z,4.93
2023-09-21T10:57:28.643Z,2.80
2023-09-21T11:00:11.291Z,3.85
2023-09-21T11:02:42.543Z,2.50
2023-09-21T11:05:09.589Z,4.78
2023-09-21T11:10:06.996Z,2.38
2023-09-21T11:12:33.983Z,2.30
2023-09-21T11:15:00.631Z,4.35
2023-09-21T11:17:30.279Z,2.58
2023-09-21T11:19:59.900Z,2.22
2023-09-21T11:22:28.167Z,2.33
2023-09-21T11:24:58.152Z,2.10
2023-09-21T11:27:28.318Z,2.85
2023-09-21T11:29:55.999Z,2.72
2023-09-21T11:32:23.332Z,3.28
2023-09-21T11:34:57.694Z,4.47
2023-09-21T11:37:25.492Z,2.13
2023-09-21T11:39:52.723Z,2.67
2023-09-21T11:42:20.880Z,3.20
2023-09-21T11:44:51.432Z,2.25
2023-09-21T11:47:19.176Z,1.77
2023-09-21T11:49:45.950Z,2.83
2023-09-21T11:52:14.966Z,2.72
2023-09-21T11:54:41.830Z,2.78
2023-09-21T11:57:10.754Z,4.30
2023-09-21T11:59:43.523Z,3.00
2023-09-21T12:02:11.191Z,3.00
2023-09-21T12:07:05.971Z,4.45
2023-09-21T12:09:37.541Z,3.17
2023-09-21T12:12:05.404Z,3.42
2023-09-21T12:14:32.493Z,4.25
2023-09-21T12:17:03.669Z,1.52
2023-09-21T12:19:32.227Z,4.15
2023-09-21T12:21:59.188Z,1.65
2023-09-21T12:24:25.833Z,3.00
2023-09-21T12:26:54.665Z,2.42
2023-09-21T12:29:21.281Z,2.53
2023-09-21T12:31:59.466Z,2.45
2023-09-21T12:34:27.994Z,3.45
2023-09-21T12:36:54.873Z,3.03
2023-09-21T12:39:25.785Z,2.22
2023-09-21T12:41:52.850Z,3.15
2023-09-21T12:44:22.953Z,2.65
2023-09-21T12:46:49.986Z,3.67
2023-09-21T12:49:17.782Z,3.47
2023-09-21T12:51:46.294Z,2.00
2023-09-21T12:54:13.089Z,2.85
2023-09-21T12:56:39.629Z,2.58
2023-09-21T12:59:06.192Z,2.08
2023-09-21T13:01:33.263Z,2.80
2023-09-21T13:04:03.250Z,2.38
2023-09-21T13:06:29.930Z,1.30
2023-09-21T13:08:56.767Z,1.77
2023-09-21T13:11:23.430Z,3.35
2023-09-21T13:13:50.022Z,2.97
2023-09-21T13:16:16.643Z,2.75
2023-09-21T13:18:44.001Z,2.63
2023-09-21T13:21:11.562Z,1.55
2023-09-21T13:23:39.003Z,2.15
2023-09-21T13:26:05.923Z,1.42
2023-09-21T13:28:33.050Z,2.90
2023-09-21T13:31:00.154Z,2.20
2023-09-21T13:33:28.264Z,2.08
2023-09-21T13:35:54.887Z,2.17
2023-09-21T13:38:23.692Z,4.15
2023-09-21T13:40:50.341Z,6.40
2023-09-21T13:43:16.860Z,5.00
2023-09-21T13:45:43.401Z,6.28
2023-09-21T13:48:10.182Z,5.70
2023-09-21T13:50:37.292Z,6.38
2023-09-21T13:53:04.410Z,6.35
2023-09-21T13:55:31.161Z,3.40
2023-09-21T13:57:58.002Z,5.70
2023-09-21T14:00:26.209Z,3.72
2023-09-21T14:02:53.112Z,3.72
2023-09-21T14:05:24.296Z,3.67
2023-09-21T14:07:51.954Z,3.33
2023-09-21T14:10:18.678Z,3.35
2023-09-21T14:12:45.703Z,5.00
2023-09-21T14:15:12.463Z,2.33
2023-09-21T14:17:41.177Z,2.35
2023-09-21T14:20:09.986Z,3.53
2023-09-21T14:22:38.981Z,2.22
2023-09-21T14:25:06.781Z,2.30
2023-09-21T14:27:36.232Z,3.05
2023-09-21T14:30:03.495Z,3.78
2023-09-21T14:32:30.299Z,3.78
2023-09-21T14:34:58.242Z,2.80
2023-09-21T14:37:27.267Z,1.60
2023-09-21T14:39:58.019Z,1.38
2023-09-21T14:42:25.664Z,3.00
2023-09-21T14:44:52.549Z,2.30
2023-09-21T14:47:19.387Z,2.38
2023-09-21T14:49:46.894Z,1.70
2023-09-21T14:52:13.470Z,3.22
2023-09-21T14:54:39.982Z,3.05
2023-09-21T14:57:08.053Z,2.83
2023-09-21T14:59:34.763Z,1.58
2023-09-21T15:02:02.013Z,3.17
2023-09-21T15:04:28.625Z,3.22
2023-09-21T15:06:56.048Z,4.22
2023-09-21T15:09:22.583Z,3.83
2023-09-21T15:11:49.157Z,2.33
2023-09-21T15:14:16.067Z,3.13
2023-09-21T15:16:42.594Z,1.88
2023-09-21T15:19:09.179Z,2.63
2023-09-21T15:21:35.875Z,2.13
2023-09-21T15:24:03.456Z,2.75
2023-09-21T15:26:30.334Z,2.08
2023-09-21T15:28:57.106Z,2.28
2023-09-21T15:31:24.457Z,2.03
2023-09-21T15:33:51.560Z,2.30
2023-09-21T15:36:18.362Z,2.10
2023-09-21T15:38:44.944Z,2.20
2023-09-21T15:41:14.482Z,2.65
2023-09-21T15:43:41.044Z,3.42
2023-09-21T15:46:07.539Z,2.67
2023-09-21T15:48:35.227Z,1.92
2023-09-21T15:51:02.528Z,3.28
2023-09-21T15:53:29.809Z,2.63
2023-09-21T15:56:01.114Z,8.20
2023-09-21T15:58:29.216Z,51.13
2023-09-21T16:00:55.945Z,76.00
2023-09-21T16:03:22.700Z,106.60
2023-09-21T16:05:49.299Z,93.63
2023-09-21T16:08:15.968Z,79.38
2023-09-21T16:10:42.505Z,77.13
2023-09-21T16:13:10.286Z,66.88
2023-09-21T16:15:37.251Z,64.55
2023-09-21T16:18:04.683Z,65.85
2023-09-21T16:20:32.376Z,62.17
2023-09-21T16:22:58.964Z,59.40
2023-09-21T16:25:25.852Z,55.83
2023-09-21T16:27:55.094Z,48.30
2023-09-21T16:30:21.791Z,56.47
2023-09-21T16:32:50.865Z,46.40
2023-09-21T16:35:18.646Z,48.47
2023-09-21T16:37:45.771Z,42.28
2023-09-21T16:40:12.893Z,39.50
2023-09-21T16:42:39.449Z,38.95
2023-09-21T16:45:07.799Z,35.15
2023-09-21T16:47:35.719Z,38.38
2023-09-21T16:50:02.476Z,34.92
2023-09-21T16:52:29.005Z,34.42
2023-09-21T16:54:55.797Z,31.33
2023-09-21T16:57:22.273Z,28.67
2023-09-21T16:59:48.912Z,27.58
2023-09-21T17:02:15.406Z,27.85
2023-09-21T17:04:41.977Z,27.80
2023-09-21T17:07:08.602Z,27.25
2023-09-21T17:09:35.416Z,24.40
2023-09-21T17:12:02.907Z,23.17
2023-09-21T17:14:29.422Z,23.52
2023-09-21T17:16:56.797Z,21.45
2023-09-21T17:21:49.841Z,20.67
2023-09-21T17:24:16.358Z,19.40
2023-09-21T17:26:42.973Z,18.85
2023-09-21T17:29:10.257Z,19.17
2023-09-21T17:31:36.863Z,19.17
2023-09-21T17:34:03.736Z,18.17
2023-09-21T17:36:30.514Z,18.80
2023-09-21T17:38:57.512Z,19.38
2023-09-21T17:41:24.195Z,20.52
2023-09-21T17:43:50.854Z,18.33
2023-09-21T17:46:17.564Z,17.40
2023-09-21T17:48:47.726Z,16.35
2023-09-21T17:51:14.818Z,17.92
2023-09-21T17:53:41.476Z,15.70
2023-09-21T17:56:10.486Z,15.10
2023-09-21T17:58:37.549Z,15.05
2023-09-21T18:01:04.212Z,15.13
2023-09-21T18:03:30.935Z,14.48
2023-09-21T18:05:58.158Z,15.25
2023-09-21T18:08:25.989Z,12.50
2023-09-21T18:10:52.691Z,14.77
2023-09-21T18:13:19.302Z,13.50
2023-09-21T18:15:45.973Z,13.27
2023-09-21T18:18:12.748Z,13.85
2023-09-21T18:20:39.295Z,12.35
2023-09-21T18:23:05.898Z,12.95
2023-09-21T18:25:33.113Z,11.05
2023-09-21T18:27:59.729Z,11.27
2023-09-21T18:30:27.281Z,12.88
2023-09-21T18:32:54.093Z,10.98
2023-09-21T18:35:20.910Z,12.00
2023-09-21T18:37:48.945Z,10.70
2023-09-21T18:40:15.622Z,11.45
2023-09-21T18:42:42.256Z,10.63
2023-09-21T18:45:10.610Z,9.48
2023-09-21T18:47:37.463Z,10.05
2023-09-21T18:50:06.364Z,8.93
2023-09-21T18:52:32.856Z,9.52
2023-09-21T18:54:59.967Z,9.82
2023-09-21T18:57:26.455Z,9.35
2023-09-21T18:59:53.158Z,9.25
2023-09-21T19:02:19.922Z,9.27
2023-09-21T19:04:46.580Z,9.18
2023-09-21T19:07:14.404Z,8.80
2023-09-21T19:09:40.967Z,8.98
2023-09-21T19:12:08.297Z,7.30
2023-09-21T19:14:35.181Z,7.88
2023-09-21T19:17:01.906Z,7.97
2023-09-21T19:19:28.716Z,7.93
2023-09-21T19:21:55.558Z,10.02
2023-09-21T19:24:22.180Z,7.22
2023-09-21T19:26:49.668Z,6.57
2023-09-21T19:29:16.208Z,7.18
2023-09-21T19:31:42.819Z,5.32
2023-09-21T19:34:09.907Z,6.47
2023-09-21T19:36:36.407Z,8.48
2023-09-21T19:39:02.908Z,6.70
2023-09-21T19:41:29.698Z,9.50
2023-09-21T19:43:56.234Z,5.57
2023-09-21T19:46:23.224Z,5.32
2023-09-21T19:48:50.211Z,5.88
2023-09-21T19:51:16.931Z,7.35
2023-09-21T19:53:43.700Z,6.25
2023-09-21T19:56:10.407Z,5.55
2023-09-21T19:58:36.877Z,5.55
2023-09-21T20:01:03.402Z,6.35
2023-09-21T20:03:30.096Z,5.72
2023-09-21T20:05:56.659Z,5.32
2023-09-21T20:08:24.341Z,5.68
2023-09-21T20:10:52.722Z,6.15
2023-09-21T20:13:20.702Z,5.65
2023-09-21T20:15:47.188Z,5.95
2023-09-21T20:18:13.910Z,4.72
2023-09-21T20:20:40.579Z,6.05
2023-09-21T20:23:07.048Z,7.38
2023-09-21T20:25:34.202Z,4.35
2023-09-21T20:28:01.066Z,4.75
2023-09-21T20:30:27.702Z,4.75
2023-09-21T20:32:54.308Z,4.38
2023-09-21T20:35:20.834Z,4.38
2023-09-21T20:37:47.407Z,4.55
2023-09-21T20:40:13.951Z,3.85
2023-09-21T20:42:40.681Z,3.90
2023-09-21T20:45:08.879Z,3.35
2023-09-21T20:47:35.491Z,5.55
2023-09-21T20:50:02.074Z,3.00
2023-09-21T20:52:29.194Z,4.38
2023-09-21T20:54:55.809Z,3.88
2023-09-21T20:57:22.514Z,4.45
2023-09-21T20:59:48.997Z,3.28
2023-09-21T21:02:15.887Z,3.17
2023-09-21T21:04:42.561Z,3.92
2023-09-21T21:07:09.486Z,2.67
2023-09-21T21:09:37.312Z,3.53
2023-09-21T21:12:03.899Z,3.72
2023-09-21T21:14:30.469Z,2.80
2023-09-21T21:16:56.969Z,3.10
2023-09-21T21:19:24.720Z,2.72
2023-09-21T21:21:51.371Z,3.78
2023-09-21T21:24:18.084Z,2.85
2023-09-21T21:26:44.655Z,2.78
2023-09-21T21:29:11.127Z,2.45
2023-09-21T21:31:37.840Z,3.20
2023-09-21T21:34:04.413Z,3.33
2023-09-21T21:36:31.264Z,3.40
2023-09-21T21:39:00.555Z,2.97
2023-09-21T21:41:27.139Z,2.35
2023-09-21T21:43:53.615Z,2.13
2023-09-21T21:46:20.324Z,4.38
2023-09-21T21:48:46.949Z,5.53
2023-09-21T21:51:13.529Z,4.75
2023-09-21T21:53:40.080Z,3.03
2023-09-21T21:56:06.582Z,2.30
2023-09-21T21:58:33.332Z,3.28
2023-09-21T22:00:59.992Z,4.75
2023-09-21T22:03:26.688Z,5.65
2023-09-21T22:05:53.364Z,7.25
2023-09-21T22:08:19.890Z,5.57
2023-09-21T22:10:46.461Z,3.58
2023-09-21T22:13:14.044Z,4.45
2023-09-21T22:15:40.872Z,6.32
2023-09-21T22:18:09.848Z,8.00
2023-09-21T22:20:41.072Z,7.00
2023-09-21T22:23:08.618Z,10.93
2023-09-21T22:25:35.536Z,10.15
2023-09-21T22:28:02.640Z,9.93
2023-09-21T22:30:29.209Z,10.20
2023-09-21T22:32:56.471Z,11.00
2023-09-21T22:35:23.407Z,11.98
2023-09-21T22:37:52.944Z,10.13
2023-09-21T22:40:24.097Z,11.27
2023-09-21T22:42:50.662Z,10.98
2023-09-21T22:45:17.753Z,11.25
2023-09-21T22:47:44.740Z,14.05
2023-09-21T22:50:16.844Z,13.23
2023-09-21T22:52:48.566Z,12.25
2023-09-21T22:55:16.463Z,14.85
2023-09-21T22:57:43.617Z,9.95
2023-09-21T23:00:11.635Z,6.72
2023-09-21T23:02:38.231Z,7.80
2023-09-21T23:05:06.907Z,7.03
2023-09-21T23:07:34.152Z,5.40
2023-09-21T23:10:00.848Z,6.78
2023-09-21T23:12:27.693Z,6.82
2023-09-21T23:14:54.229Z,5.68
2023-09-21T23:17:20.735Z,5.28
2023-09-21T23:19:49.397Z,6.35
2023-09-21T23:22:15.923Z,5.97
2023-09-21T23:24:43.203Z,4.68
2023-09-21T23:27:11.546Z,6.57
2023-09-21T23:29:38.417Z,5.85
2023-09-21T23:32:05.237Z,4.60
2023-09-21T23:34:32.347Z,5.22
2023-09-21T23:36:58.955Z,4.15
2023-09-21T23:39:26.638Z,4.68
2023-09-21T23:41:53.217Z,3.92
2023-09-21T23:44:22.705Z,5.30
2023-09-21T23:46:49.551Z,3.80
2023-09-21T23:49:16.892Z,3.78
2023-09-21T23:51:43.387Z,4.60
2023-09-21T23:54:10.758Z,5.43
2023-09-21T23:56:37.208Z,4.13
2023-09-21T23:59:05.300Z,3.42
